Time;durP1;ratioP1;P1;durP2;ratioP2;P2;SDS_P1;SDS_P2;PMS_P1;PMS_P2;Temp;Humidity;BMP_temperature;BMP_pressure;BME280_temperature;BME280_humidity;BME280_pressure;Samples;Min_cycle;Max_cycle;Signal;HPM_P1;HPM_P2
2023/05/14 00:00:18;;;;;;;14.75;10.27;;;;;;;;;;4972204;28;20053;-84
2023/05/14 00:02:44;;;;;;;18.55;9.95;;;;;;;;;;4966836;28;20043;-84
2023/05/14 00:05:11;;;;;;;15.05;9.57;;;;;;;;;;4988786;28;20047;-83
2023/05/14 00:07:38;;;;;;;13.30;9.35;;;;;;;;;;4972721;28;20538;-84
2023/05/14 00:10:05;;;;;;;14.85;9.25;;;;;;;;;;4956467;28;20050;-84
2023/05/14 00:12:31;;;;;;;12.80;9.05;;;;;;;;;;4970218;28;20062;-83
2023/05/14 00:14:58;;;;;;;13.82;8.55;;;;;;;;;;4970505;28;20503;-82
2023/05/14 00:17:24;;;;;;;14.80;9.73;;;;;;;;;;4972495;28;20047;-83
2023/05/14 00:19:51;;;;;;;13.77;8.45;;;;;;;;;;4955498;28;20047;-84
2023/05/14 00:22:17;;;;;;;14.82;9.35;;;;;;;;;;4972120;28;20059;-84
2023/05/14 00:24:44;;;;;;;14.88;9.48;;;;;;;;;;4973465;28;20125;-83
2023/05/14 00:27:10;;;;;;;14.90;10.15;;;;;;;;;;4973173;28;20050;-84
2023/05/14 00:29:38;;;;;;;15.82;10.30;;;;;;;;;;4981701;28;20600;-83
2023/05/14 00:32:05;;;;;;;16.98;10.38;;;;;;;;;;4969406;28;20107;-84
2023/05/14 00:34:32;;;;;;;16.88;10.07;;;;;;;;;;4970618;28;20039;-83
2023/05/14 00:36:58;;;;;;;15.93;10.13;;;;;;;;;;4956181;28;20055;-85
2023/05/14 00:39:25;;;;;;;15.70;9.18;;;;;;;;;;4953989;28;20043;-83
2023/05/14 00:41:51;;;;;;;16.00;9.23;;;;;;;;;;4953175;28;20043;-84
2023/05/14 00:44:18;;;;;;;13.35;8.48;;;;;;;;;;4937759;28;20047;-83
2023/05/14 00:46:44;;;;;;;12.93;8.38;;;;;;;;;;4954531;28;20134;-82
2023/05/14 00:49:11;;;;;;;15.50;8.15;;;;;;;;;;4953569;28;20059;-84
2023/05/14 00:51:38;;;;;;;12.07;8.27;;;;;;;;;;4973287;28;20048;-82
2023/05/14 00:54:05;;;;;;;13.73;8.23;;;;;;;;;;4962050;28;20482;-84
2023/05/14 00:56:49;;;;;;;12.25;7.95;;;;;;;;;;4953308;28;20518;-82
2023/05/14 00:59:16;;;;;;;14.25;7.80;;;;;;;;;;4950062;28;20051;-82
2023/05/14 01:01:43;;;;;;;13.23;8.38;;;;;;;;;;4968126;28;20085;-83
2023/05/14 01:04:10;;;;;;;14.30;7.70;;;;;;;;;;4946581;28;20459;-84
2023/05/14 01:06:36;;;;;;;11.65;7.75;;;;;;;;;;4987997;28;20046;-83
2023/05/14 01:09:22;;;;;;;12.15;8.25;;;;;;;;;;4973707;28;20043;-83
2023/05/14 01:11:58;;;;;;;14.18;8.32;;;;;;;;;;4980776;28;20047;-83
2023/05/14 01:14:25;;;;;;;13.65;8.15;;;;;;;;;;4936142;29;20044;-84
2023/05/14 01:16:55;;;;;;;13.80;8.23;;;;;;;;;;4963444;28;20098;-82
2023/05/14 01:19:41;;;;;;;16.52;8.82;;;;;;;;;;4967793;28;20043;-85
2023/05/14 01:22:09;;;;;;;13.30;8.07;;;;;;;;;;4952558;28;20047;-84
2023/05/14 01:24:35;;;;;;;12.13;8.57;;;;;;;;;;4953052;28;20073;-83
2023/05/14 01:27:22;;;;;;;14.43;8.15;;;;;;;;;;4952960;28;20067;-84
2023/05/14 01:29:50;;;;;;;14.55;8.40;;;;;;;;;;4953179;28;20043;-84
2023/05/14 01:32:17;;;;;;;13.27;8.73;;;;;;;;;;4954048;28;20086;-82
2023/05/14 01:34:46;;;;;;;10.52;7.80;;;;;;;;;;4951830;28;20118;-83
2023/05/14 01:37:12;;;;;;;14.95;8.88;;;;;;;;;;4949365;28;20070;-83
2023/05/14 01:39:40;;;;;;;14.63;9.02;;;;;;;;;;4936399;28;20074;-82
2023/05/14 01:42:06;;;;;;;15.77;8.65;;;;;;;;;;4944471;28;20047;-83
2023/05/14 01:44:33;;;;;;;15.43;8.93;;;;;;;;;;4954697;29;20074;-82
2023/05/14 01:47:00;;;;;;;12.90;8.90;;;;;;;;;;4953001;29;20051;-85
2023/05/14 01:49:26;;;;;;;13.25;9.13;;;;;;;;;;4953575;28;20043;-83
2023/05/14 01:51:53;;;;;;;14.60;8.98;;;;;;;;;;4970176;28;20055;-82
2023/05/14 01:54:19;;;;;;;16.13;9.45;;;;;;;;;;4957307;28;20104;-84
2023/05/14 01:56:46;;;;;;;12.73;8.98;;;;;;;;;;4954610;28;20126;-83
2023/05/14 01:59:13;;;;;;;18.67;9.48;;;;;;;;;;4939147;28;20054;-83
2023/05/14 02:01:39;;;;;;;13.73;9.10;;;;;;;;;;4947461;28;20039;-85
2023/05/14 02:04:07;;;;;;;13.88;9.88;;;;;;;;;;4951482;28;20106;-83
2023/05/14 02:06:34;;;;;;;15.60;10.20;;;;;;;;;;4992450;28;20046;-85
2023/05/14 02:09:00;;;;;;;16.48;9.80;;;;;;;;;;4977219;28;20035;-88
2023/05/14 02:11:27;;;;;;;14.32;9.35;;;;;;;;;;4976414;28;20049;-85
2023/05/14 02:13:53;;;;;;;16.52;10.07;;;;;;;;;;4974775;28;20138;-86
2023/05/14 02:16:20;;;;;;;14.70;10.23;;;;;;;;;;4990439;28;20097;-85
2023/05/14 02:18:50;;;;;;;13.07;9.18;;;;;;;;;;4958584;28;20043;-83
2023/05/14 02:21:16;;;;;;;16.25;9.15;;;;;;;;;;4990892;28;20043;-84
2023/05/14 02:23:43;;;;;;;15.23;9.90;;;;;;;;;;4958537;28;20518;-81
2023/05/14 02:26:10;;;;;;;15.20;10.18;;;;;;;;;;4958309;28;20054;-82
2023/05/14 02:28:36;;;;;;;13.82;9.30;;;;;;;;;;4975952;28;20030;-84
2023/05/14 02:31:03;;;;;;;14.65;8.93;;;;;;;;;;4960837;28;20051;-84
2023/05/14 02:33:30;;;;;;;13.43;8.75;;;;;;;;;;4952873;28;20107;-81
2023/05/14 02:35:57;;;;;;;15.57;9.55;;;;;;;;;;4952661;28;20047;-83
2023/05/14 02:38:24;;;;;;;15.07;9.68;;;;;;;;;;4953657;28;20073;-84
2023/05/14 02:40:51;;;;;;;15.88;9.52;;;;;;;;;;4953609;28;20536;-83
2023/05/14 02:43:18;;;;;;;14.55;9.55;;;;;;;;;;4954325;28;20407;-85
2023/05/14 02:45:44;;;;;;;14.43;9.20;;;;;;;;;;4954033;28;20162;-83
2023/05/14 02:48:11;;;;;;;16.80;8.85;;;;;;;;;;4954486;28;20065;-86
2023/05/14 02:50:37;;;;;;;16.00;9.95;;;;;;;;;;4955044;28;20043;-86
2023/05/14 02:53:04;;;;;;;13.45;8.40;;;;;;;;;;4954335;28;20047;-84
2023/05/14 02:55:30;;;;;;;13.55;9.15;;;;;;;;;;4970522;28;20059;-85
2023/05/14 02:57:57;;;;;;;14.43;8.73;;;;;;;;;;4953872;28;20074;-84
2023/05/14 03:00:24;;;;;;;12.80;9.25;;;;;;;;;;4954438;28;20047;-84
2023/05/14 03:02:51;;;;;;;13.65;8.32;;;;;;;;;;4977990;28;20047;-83
2023/05/14 03:05:18;;;;;;;14.50;9.10;;;;;;;;;;4954878;28;20079;-83
2023/05/14 03:07:45;;;;;;;12.82;9.18;;;;;;;;;;4937550;28;20532;-86
2023/05/14 03:10:11;;;;;;;13.20;8.13;;;;;;;;;;4937928;29;20054;-83
2023/05/14 03:12:38;;;;;;;16.85;9.48;;;;;;;;;;4971937;28;20067;-84
2023/05/14 03:15:05;;;;;;;14.18;9.02;;;;;;;;;;4955824;28;20627;-85
2023/05/14 03:17:31;;;;;;;15.40;9.45;;;;;;;;;;4954581;28;20047;-83
2023/05/14 03:19:58;;;;;;;12.60;8.90;;;;;;;;;;4936079;28;20047;-83
2023/05/14 03:22:25;;;;;;;15.52;9.82;;;;;;;;;;4940910;28;20046;-83
2023/05/14 03:24:51;;;;;;;19.63;10.07;;;;;;;;;;4970688;28;20554;-83
2023/05/14 03:27:18;;;;;;;14.75;9.95;;;;;;;;;;4954446;28;20515;-83
2023/05/14 03:29:45;;;;;;;17.30;9.68;;;;;;;;;;4936076;28;20039;-84
2023/05/14 03:32:12;;;;;;;13.40;8.73;;;;;;;;;;4982936;28;20559;-83
2023/05/14 03:34:38;;;;;;;15.10;9.73;;;;;;;;;;4983051;28;20058;-83
2023/05/14 03:37:05;;;;;;;17.45;9.32;;;;;;;;;;4983425;28;20051;-84
2023/05/14 03:39:32;;;;;;;14.88;9.63;;;;;;;;;;4967537;28;20043;-84
2023/05/14 03:41:58;;;;;;;17.58;9.60;;;;;;;;;;4984074;28;20047;-84
2023/05/14 03:44:25;;;;;;;16.00;8.98;;;;;;;;;;4968308;28;20043;-83
2023/05/14 03:46:52;;;;;;;12.73;8.88;;;;;;;;;;4984662;28;20039;-83
2023/05/14 03:49:18;;;;;;;16.83;8.77;;;;;;;;;;4984491;28;20040;-83
2023/05/14 03:51:45;;;;;;;13.98;9.25;;;;;;;;;;4968748;28;20043;-84
2023/05/14 03:54:12;;;;;;;14.23;9.07;;;;;;;;;;4968131;28;20083;-84
2023/05/14 03:56:38;;;;;;;14.95;9.15;;;;;;;;;;4953159;28;20068;-85
2023/05/14 03:59:07;;;;;;;14.95;9.05;;;;;;;;;;4968584;28;20138;-86
2023/05/14 04:01:35;;;;;;;14.80;8.90;;;;;;;;;;4959325;28;20141;-86
2023/05/14 04:04:02;;;;;;;17.08;9.23;;;;;;;;;;4959531;28;20420;-83
2023/05/14 04:06:28;;;;;;;15.65;8.68;;;;;;;;;;4950317;28;20440;-84
2023/05/14 04:08:55;;;;;;;13.00;9.02;;;;;;;;;;4951264;28;20055;-84
2023/05/14 04:11:21;;;;;;;15.32;9.05;;;;;;;;;;4954622;28;20051;-83
2023/05/14 04:13:48;;;;;;;16.63;9.23;;;;;;;;;;4973012;28;20050;-83
2023/05/14 04:16:15;;;;;;;13.30;8.55;;;;;;;;;;4969246;28;20055;-84
2023/05/14 04:18:41;;;;;;;16.88;9.13;;;;;;;;;;4969789;28;20047;-84
2023/05/14 04:21:08;;;;;;;14.35;8.90;;;;;;;;;;4956049;28;20401;-85
2023/05/14 04:23:35;;;;;;;12.57;8.68;;;;;;;;;;4954725;28;20058;-82
2023/05/14 04:26:01;;;;;;;12.93;8.57;;;;;;;;;;4955479;28;20067;-84
2023/05/14 04:28:28;;;;;;;14.73;8.93;;;;;;;;;;4975487;28;20082;-84
2023/05/14 04:30:54;;;;;;;13.48;8.38;;;;;;;;;;4944968;28;20107;-84
2023/05/14 04:33:21;;;;;;;13.55;8.85;;;;;;;;;;4965086;28;20060;-84
2023/05/14 04:35:47;;;;;;;13.95;8.43;;;;;;;;;;4951925;28;20070;-83
2023/05/14 04:38:14;;;;;;;13.23;8.82;;;;;;;;;;4983826;28;20039;-84
2023/05/14 04:40:41;;;;;;;14.00;9.38;;;;;;;;;;4967315;28;20122;-85
2023/05/14 04:43:08;;;;;;;14.57;9.10;;;;;;;;;;4952268;28;20031;-83
2023/05/14 04:45:34;;;;;;;15.85;9.23;;;;;;;;;;4951193;28;20043;-84
2023/05/14 04:48:06;;;;;;;13.48;9.38;;;;;;;;;;4952919;28;20098;-82
2023/05/14 04:50:33;;;;;;;12.73;9.02;;;;;;;;;;4984065;28;20174;-82
2023/05/14 04:53:00;;;;;;;18.27;9.38;;;;;;;;;;4953128;28;20039;-84
2023/05/14 04:55:26;;;;;;;15.20;8.65;;;;;;;;;;4968626;28;20126;-83
2023/05/14 04:57:53;;;;;;;12.45;9.00;;;;;;;;;;4956316;28;20045;-85
2023/05/14 05:00:20;;;;;;;19.90;9.50;;;;;;;;;;4958682;28;20055;-83
2023/05/14 05:02:48;;;;;;;12.75;9.07;;;;;;;;;;4994446;28;20047;-81
2023/05/14 05:05:14;;;;;;;13.65;8.57;;;;;;;;;;4945177;28;20130;-84
2023/05/14 05:07:41;;;;;;;12.82;8.98;;;;;;;;;;4970776;28;20036;-84
2023/05/14 05:10:07;;;;;;;17.88;9.65;;;;;;;;;;4952403;28;20047;-81
2023/05/14 05:12:35;;;;;;;16.45;9.77;;;;;;;;;;4941966;28;20047;-82
2023/05/14 05:15:02;;;;;;;14.48;9.20;;;;;;;;;;4984349;28;20130;-82
2023/05/14 05:17:29;;;;;;;19.52;9.43;;;;;;;;;;4940338;28;20143;-81
2023/05/14 05:19:55;;;;;;;15.80;9.52;;;;;;;;;;4979224;28;20040;-85
2023/05/14 05:22:23;;;;;;;17.05;9.95;;;;;;;;;;4954216;28;20035;-84
2023/05/14 05:24:49;;;;;;;15.10;8.93;;;;;;;;;;4951908;28;20040;-84
2023/05/14 05:27:16;;;;;;;14.90;8.77;;;;;;;;;;4974021;28;20040;-86
2023/05/14 05:29:43;;;;;;;13.65;8.93;;;;;;;;;;4958395;28;20071;-84
2023/05/14 05:32:10;;;;;;;12.52;8.43;;;;;;;;;;4959172;28;20142;-86
2023/05/14 05:34:40;;;;;;;16.02;8.90;;;;;;;;;;4986787;28;20066;-84
2023/05/14 05:37:08;;;;;;;14.70;8.80;;;;;;;;;;4954990;28;20047;-84
2023/05/14 05:39:34;;;;;;;13.48;8.10;;;;;;;;;;4957918;28;20051;-86
2023/05/14 05:42:01;;;;;;;16.08;8.00;;;;;;;;;;4958971;28;20061;-85
2023/05/14 05:44:28;;;;;;;17.13;8.48;;;;;;;;;;4991303;28;20075;-81
2023/05/14 05:46:57;;;;;;;12.35;8.35;;;;;;;;;;4948446;29;20054;-84
2023/05/14 05:49:24;;;;;;;16.38;8.35;;;;;;;;;;4962175;28;20126;-84
2023/05/14 05:51:51;;;;;;;16.92;8.48;;;;;;;;;;4950537;28;20051;-86
2023/05/14 05:54:26;;;;;;;12.23;8.05;;;;;;;;;;4970302;28;20052;-87
2023/05/14 05:57:05;;;;;;;13.52;8.00;;;;;;;;;;4946518;28;20135;-82
2023/05/14 05:59:37;;;;;;;12.40;8.10;;;;;;;;;;4957250;28;20058;-83
2023/05/14 06:02:09;;;;;;;11.55;7.40;;;;;;;;;;4952259;28;20051;-83
2023/05/14 06:04:35;;;;;;;10.57;7.50;;;;;;;;;;4985768;28;20074;-84
2023/05/14 06:07:02;;;;;;;11.50;7.30;;;;;;;;;;4977754;28;20625;-83
2023/05/14 06:09:28;;;;;;;11.45;7.03;;;;;;;;;;4987904;28;20078;-85
2023/05/14 06:11:55;;;;;;;14.00;7.00;;;;;;;;;;4980703;28;20066;-84
2023/05/14 06:14:22;;;;;;;12.13;6.82;;;;;;;;;;4966298;28;20054;-82
2023/05/14 06:16:48;;;;;;;11.07;5.88;;;;;;;;;;4973276;28;20023;-85
2023/05/14 06:19:17;;;;;;;9.18;6.22;;;;;;;;;;4975816;28;20067;-81
2023/05/14 06:21:44;;;;;;;12.00;6.45;;;;;;;;;;4982379;28;20049;-82
2023/05/14 06:24:12;;;;;;;10.43;6.20;;;;;;;;;;4969749;28;20051;-82
2023/05/14 06:26:38;;;;;;;17.65;7.60;;;;;;;;;;4965101;28;20055;-83
2023/05/14 06:29:05;;;;;;;10.63;7.22;;;;;;;;;;4976698;28;20107;-84
2023/05/14 06:31:34;;;;;;;12.35;6.38;;;;;;;;;;4954655;28;20118;-84
2023/05/14 06:34:04;;;;;;;12.05;5.97;;;;;;;;;;4978507;28;20076;-85
2023/05/14 06:36:31;;;;;;;9.68;6.32;;;;;;;;;;4963450;28;20063;-81
2023/05/14 06:38:58;;;;;;;8.77;5.63;;;;;;;;;;4963009;28;20059;-85
2023/05/14 06:41:25;;;;;;;9.05;5.75;;;;;;;;;;4964083;28;20064;-83
2023/05/14 06:43:59;;;;;;;12.05;6.43;;;;;;;;;;4975050;28;20059;-83
2023/05/14 06:46:32;;;;;;;11.57;6.05;;;;;;;;;;4968263;28;20046;-84
2023/05/14 06:48:59;;;;;;;9.98;5.53;;;;;;;;;;4939773;28;20043;-85
2023/05/14 06:51:27;;;;;;;10.18;5.97;;;;;;;;;;4977715;28;20040;-85
2023/05/14 06:53:56;;;;;;;8.95;5.40;;;;;;;;;;4950751;28;20067;-84
2023/05/14 06:56:24;;;;;;;9.65;6.38;;;;;;;;;;4981608;28;20101;-83
2023/05/14 06:58:51;;;;;;;10.85;5.78;;;;;;;;;;4963130;28;20055;-85
2023/05/14 07:01:20;;;;;;;7.97;4.30;;;;;;;;;;4964858;28;20050;-85
2023/05/14 07:03:59;;;;;;;6.53;4.10;;;;;;;;;;4949399;28;20103;-82
2023/05/14 07:06:31;;;;;;;10.07;4.40;;;;;;;;;;4942909;28;20084;-82
2023/05/14 07:08:58;;;;;;;7.43;4.10;;;;;;;;;;4943066;28;20125;-81
2023/05/14 07:11:27;;;;;;;6.30;4.55;;;;;;;;;;4948913;28;20563;-84
2023/05/14 07:14:01;;;;;;;5.95;4.15;;;;;;;;;;4941978;28;20594;-84
2023/05/14 07:16:29;;;;;;;5.88;3.53;;;;;;;;;;4957147;28;20122;-84
2023/05/14 07:18:59;;;;;;;5.97;4.00;;;;;;;;;;4933524;28;20100;-87
2023/05/14 07:21:26;;;;;;;5.88;4.13;;;;;;;;;;4963531;28;20050;-82
2023/05/14 07:23:53;;;;;;;27.42;13.98;;;;;;;;;;4949078;28;20055;-85
2023/05/14 07:26:20;;;;;;;16.05;5.63;;;;;;;;;;4972220;28;20139;-86
2023/05/14 07:28:46;;;;;;;9.23;4.10;;;;;;;;;;4935389;28;20055;-81
2023/05/14 07:31:13;;;;;;;5.68;3.58;;;;;;;;;;4975522;28;20055;-85
2023/05/14 07:33:40;;;;;;;7.50;3.92;;;;;;;;;;4958105;28;20047;-83
2023/05/14 07:36:14;;;;;;;5.25;3.30;;;;;;;;;;4954951;28;20366;-83
2023/05/14 07:38:48;;;;;;;6.30;3.90;;;;;;;;;;4961890;28;20044;-82
2023/05/14 07:41:17;;;;;;;6.63;3.90;;;;;;;;;;4971596;28;20079;-81
2023/05/14 07:43:44;;;;;;;7.22;3.90;;;;;;;;;;4970067;28;20035;-82
2023/05/14 07:46:11;;;;;;;7.03;3.95;;;;;;;;;;4971133;28;20047;-83
2023/05/14 07:48:38;;;;;;;5.18;3.60;;;;;;;;;;4964206;28;20039;-86
2023/05/14 07:51:11;;;;;;;6.65;3.00;;;;;;;;;;4954832;28;20055;-84
2023/05/14 07:53:42;;;;;;;4.32;2.85;;;;;;;;;;4958074;28;20039;-81
2023/05/14 07:56:20;;;;;;;4.55;2.88;;;;;;;;;;4940457;28;20055;-85
2023/05/14 07:58:47;;;;;;;5.85;3.10;;;;;;;;;;4951286;28;20047;-84
2023/05/14 08:01:14;;;;;;;7.05;2.72;;;;;;;;;;4944935;28;20077;-83
2023/05/14 08:03:44;;;;;;;3.83;3.05;;;;;;;;;;4960703;28;20507;-82
2023/05/14 08:06:11;;;;;;;4.95;3.00;;;;;;;;;;4956622;28;20058;-82
2023/05/14 08:08:37;;;;;;;4.32;2.60;;;;;;;;;;4951909;28;20044;-84
2023/05/14 08:11:04;;;;;;;4.72;2.83;;;;;;;;;;4966497;28;20577;-83
2023/05/14 08:13:31;;;;;;;4.35;2.80;;;;;;;;;;4942421;28;20067;-84
2023/05/14 08:15:58;;;;;;;4.05;2.72;;;;;;;;;;4928171;28;20046;-85
2023/05/14 08:18:24;;;;;;;4.95;2.72;;;;;;;;;;4960130;28;20448;-86
2023/05/14 08:20:51;;;;;;;3.28;2.45;;;;;;;;;;4932072;28;20048;-84
2023/05/14 08:23:17;;;;;;;4.03;2.70;;;;;;;;;;4924294;29;20044;-83
2023/05/14 08:25:44;;;;;;;2.80;2.30;;;;;;;;;;4948687;28;20111;-81
2023/05/14 08:28:10;;;;;;;5.75;2.38;;;;;;;;;;4965415;28;20047;-79
2023/05/14 08:30:37;;;;;;;3.67;2.65;;;;;;;;;;4954317;28;20543;-82
2023/05/14 08:33:04;;;;;;;5.10;2.47;;;;;;;;;;4960539;28;20077;-83
2023/05/14 08:35:30;;;;;;;4.43;2.60;;;;;;;;;;4985185;28;20660;-82
2023/05/14 08:37:57;;;;;;;4.22;2.90;;;;;;;;;;4982818;28;20062;-83
2023/05/14 08:40:23;;;;;;;4.50;2.70;;;;;;;;;;4980670;28;20567;-85
2023/05/14 08:42:51;;;;;;;6.18;3.30;;;;;;;;;;4954717;28;20050;-83
2023/05/14 08:45:18;;;;;;;6.95;3.58;;;;;;;;;;4942745;28;20054;-81
2023/05/14 08:47:49;;;;;;;7.68;3.30;;;;;;;;;;4952765;28;20555;-81
2023/05/14 08:50:17;;;;;;;6.68;3.53;;;;;;;;;;4960887;28;20053;-82
2023/05/14 08:52:47;;;;;;;5.85;3.78;;;;;;;;;;4962610;28;20494;-82
2023/05/14 08:55:14;;;;;;;6.80;3.20;;;;;;;;;;4969645;28;20051;-80
2023/05/14 08:57:40;;;;;;;6.78;3.38;;;;;;;;;;4966249;28;20364;-82
2023/05/14 09:00:08;;;;;;;4.82;3.25;;;;;;;;;;4962370;28;20061;-84
2023/05/14 09:02:35;;;;;;;4.28;3.30;;;;;;;;;;4980955;28;20668;-83
2023/05/14 09:05:02;;;;;;;3.05;2.35;;;;;;;;;;4950944;28;20520;-83
2023/05/14 09:07:29;;;;;;;6.13;3.72;;;;;;;;;;4950464;28;20130;-80
2023/05/14 09:09:56;;;;;;;3.38;2.42;;;;;;;;;;4962905;28;20102;-80
2023/05/14 09:12:22;;;;;;;3.70;2.28;;;;;;;;;;4938912;28;20111;-82
2023/05/14 09:14:49;;;;;;;3.42;2.22;;;;;;;;;;4961687;28;20057;-82
2023/05/14 09:17:16;;;;;;;8.95;4.95;;;;;;;;;;4951676;28;20043;-81
2023/05/14 09:19:46;;;;;;;4.88;2.83;;;;;;;;;;4969465;28;20043;-82
2023/05/14 09:22:13;;;;;;;6.35;3.10;;;;;;;;;;4951420;28;20051;-81
2023/05/14 09:24:40;;;;;;;5.15;2.15;;;;;;;;;;4971670;28;20051;-81
2023/05/14 09:27:08;;;;;;;3.08;2.00;;;;;;;;;;4950796;28;20047;-82
2023/05/14 09:29:35;;;;;;;5.65;2.30;;;;;;;;;;4987391;28;20054;-78
2023/05/14 09:32:04;;;;;;;5.30;1.77;;;;;;;;;;4988416;28;20063;-78
2023/05/14 09:34:32;;;;;;;3.65;1.90;;;;;;;;;;4987868;28;20034;-79
2023/05/14 09:37:00;;;;;;;2.85;2.22;;;;;;;;;;4937492;28;20399;-82
2023/05/14 09:39:28;;;;;;;2.53;2.00;;;;;;;;;;4970165;28;20444;-82
2023/05/14 09:41:55;;;;;;;5.07;1.98;;;;;;;;;;4958748;28;20046;-78
2023/05/14 09:44:23;;;;;;;4.55;2.25;;;;;;;;;;4971544;28;20499;-83
2023/05/14 09:46:50;;;;;;;3.08;2.30;;;;;;;;;;4949575;28;20113;-82
2023/05/14 09:49:16;;;;;;;4.38;2.88;;;;;;;;;;4948786;28;20047;-82
2023/05/14 09:51:44;;;;;;;3.65;2.88;;;;;;;;;;4979986;28;20670;-82
2023/05/14 09:54:10;;;;;;;7.60;3.47;;;;;;;;;;4956791;28;20046;-82
2023/05/14 09:56:38;;;;;;;11.88;3.60;;;;;;;;;;4950299;28;20077;-80
2023/05/14 09:59:05;;;;;;;5.28;3.10;;;;;;;;;;4964535;28;20130;-83
2023/05/14 10:01:32;;;;;;;4.13;3.20;;;;;;;;;;4961986;28;20067;-82
2023/05/14 10:03:59;;;;;;;8.52;4.72;;;;;;;;;;4945804;28;20047;-83
2023/05/14 10:06:26;;;;;;;4.85;3.45;;;;;;;;;;4977511;28;20134;-82
2023/05/14 10:08:58;;;;;;;3.67;3.15;;;;;;;;;;4968168;28;20460;-82
2023/05/14 10:11:27;;;;;;;5.82;3.20;;;;;;;;;;4972619;28;20147;-81
2023/05/14 10:13:56;;;;;;;4.68;3.00;;;;;;;;;;4990467;28;20039;-81
2023/05/14 10:16:33;;;;;;;3.53;2.83;;;;;;;;;;4959808;28;20392;-80
2023/05/14 10:19:04;;;;;;;3.83;3.30;;;;;;;;;;4963619;28;20053;-79
2023/05/14 10:21:36;;;;;;;5.18;3.40;;;;;;;;;;4953142;28;20054;-82
2023/05/14 10:24:04;;;;;;;4.85;3.47;;;;;;;;;;4952620;28;20059;-82
2023/05/14 10:26:31;;;;;;;5.95;4.07;;;;;;;;;;4952776;28;20047;-78
2023/05/14 10:28:58;;;;;;;4.63;3.70;;;;;;;;;;4953237;28;20076;-83
2023/05/14 10:31:43;;;;;;;5.20;3.45;;;;;;;;;;4981165;28;20144;-83
2023/05/14 10:34:28;;;;;;;6.83;4.03;;;;;;;;;;4937956;28;20051;-79
2023/05/14 10:36:58;;;;;;;5.57;3.78;;;;;;;;;;4938643;29;20370;-80
2023/05/14 10:39:38;;;;;;;5.85;3.70;;;;;;;;;;4950652;29;20501;-83
2023/05/14 10:42:05;;;;;;;5.50;3.65;;;;;;;;;;4950852;28;20455;-81
2023/05/14 10:44:33;;;;;;;6.40;4.00;;;;;;;;;;4970692;28;20049;-80
2023/05/14 10:47:01;;;;;;;7.90;4.18;;;;;;;;;;4955668;28;20480;-83
2023/05/14 10:49:27;;;;;;;6.32;4.40;;;;;;;;;;4967037;28;20059;-80
2023/05/14 10:52:09;;;;;;;4.65;3.92;;;;;;;;;;4972141;28;20038;-81
2023/05/14 10:54:35;;;;;;;5.50;4.38;;;;;;;;;;4973456;28;20796;-84
2023/05/14 10:57:02;;;;;;;4.85;4.05;;;;;;;;;;4964270;28;20138;-81
2023/05/14 10:59:32;;;;;;;6.13;4.00;;;;;;;;;;4981094;28;20045;-81
2023/05/14 11:01:59;;;;;;;5.57;4.00;;;;;;;;;;4962652;28;20055;-82
2023/05/14 11:04:26;;;;;;;6.43;3.80;;;;;;;;;;4958591;28;20047;-82
2023/05/14 11:06:54;;;;;;;7.05;3.97;;;;;;;;;;4964085;28;20047;-79
2023/05/14 11:09:21;;;;;;;7.57;4.28;;;;;;;;;;4980822;28;20103;-80
2023/05/14 11:11:48;;;;;;;5.63;4.10;;;;;;;;;;4967390;28;20059;-80
2023/05/14 11:14:14;;;;;;;7.18;4.13;;;;;;;;;;4982376;28;20127;-81
2023/05/14 11:16:41;;;;;;;4.35;3.40;;;;;;;;;;4977857;28;20035;-79
2023/05/14 11:19:07;;;;;;;5.75;3.95;;;;;;;;;;4955982;28;20150;-84
2023/05/14 11:21:37;;;;;;;6.35;3.80;;;;;;;;;;4946217;28;20039;-85
2023/05/14 11:24:06;;;;;;;4.18;3.45;;;;;;;;;;4959709;28;20525;-84
2023/05/14 11:26:32;;;;;;;6.25;3.47;;;;;;;;;;4961185;28;20039;-83
2023/05/14 11:28:59;;;;;;;3.88;3.30;;;;;;;;;;4966764;28;20118;-82
2023/05/14 11:31:26;;;;;;;3.88;3.47;;;;;;;;;;4971004;28;20496;-82
2023/05/14 11:33:53;;;;;;;4.72;3.38;;;;;;;;;;4933976;28;20958;-83
2023/05/14 11:36:20;;;;;;;8.45;3.20;;;;;;;;;;4931208;28;20085;-83
2023/05/14 11:38:47;;;;;;;14.77;3.72;;;;;;;;;;4971015;28;20533;-81
2023/05/14 11:41:14;;;;;;;6.47;3.28;;;;;;;;;;4964184;28;20075;-82
2023/05/14 11:43:45;;;;;;;4.68;2.90;;;;;;;;;;4950825;28;20126;-83
2023/05/14 11:46:15;;;;;;;4.15;2.83;;;;;;;;;;4985743;28;20047;-83
2023/05/14 11:48:41;;;;;;;6.47;2.97;;;;;;;;;;4968998;28;20069;-81
2023/05/14 11:51:08;;;;;;;4.38;2.90;;;;;;;;;;4979934;28;20061;-82
2023/05/14 11:53:34;;;;;;;8.85;3.00;;;;;;;;;;4954723;28;20047;-82
2023/05/14 11:56:01;;;;;;;4.75;2.95;;;;;;;;;;4977361;28;20105;-83
2023/05/14 11:58:31;;;;;;;5.97;2.85;;;;;;;;;;4952512;28;20107;-82
2023/05/14 12:00:57;;;;;;;4.93;3.17;;;;;;;;;;4968324;28;20114;-82
2023/05/14 12:03:28;;;;;;;4.97;3.20;;;;;;;;;;4948249;28;20047;-82
2023/05/14 12:05:59;;;;;;;4.80;3.17;;;;;;;;;;4954028;28;20126;-81
2023/05/14 12:08:27;;;;;;;5.72;3.05;;;;;;;;;;4969979;28;20074;-82
2023/05/14 12:10:54;;;;;;;6.60;3.28;;;;;;;;;;4967257;28;20427;-82
2023/05/14 12:13:24;;;;;;;6.20;3.50;;;;;;;;;;4967571;28;20058;-81
2023/05/14 12:15:57;;;;;;;10.00;3.50;;;;;;;;;;4967495;28;20414;-83
2023/05/14 12:18:25;;;;;;;4.35;3.10;;;;;;;;;;4973352;28;20046;-81
2023/05/14 12:20:52;;;;;;;8.18;2.97;;;;;;;;;;4958991;28;20051;-83
2023/05/14 12:23:25;;;;;;;7.82;3.15;;;;;;;;;;4949843;28;20074;-82
2023/05/14 12:25:52;;;;;;;6.68;3.17;;;;;;;;;;4950817;28;20051;-79
2023/05/14 12:28:19;;;;;;;4.45;3.25;;;;;;;;;;4968527;28;20491;-82
2023/05/14 12:30:46;;;;;;;4.28;3.00;;;;;;;;;;4959913;28;20043;-81
2023/05/14 12:33:13;;;;;;;5.00;3.00;;;;;;;;;;4951943;28;20051;-82
2023/05/14 12:35:40;;;;;;;4.43;3.05;;;;;;;;;;4966509;28;20047;-79
2023/05/14 12:38:07;;;;;;;5.15;3.15;;;;;;;;;;4961932;28;20507;-82
2023/05/14 12:40:33;;;;;;;5.28;3.13;;;;;;;;;;4968617;28;20051;-80
2023/05/14 12:43:00;;;;;;;5.43;3.30;;;;;;;;;;4951408;28;20101;-81
2023/05/14 12:45:26;;;;;;;4.40;2.80;;;;;;;;;;4951422;28;20051;-82
2023/05/14 12:47:53;;;;;;;4.55;2.85;;;;;;;;;;4949149;28;20046;-79
2023/05/14 12:50:20;;;;;;;5.80;2.40;;;;;;;;;;4941103;28;20054;-79
2023/05/14 12:52:47;;;;;;;6.03;2.75;;;;;;;;;;4944499;28;20050;-81
2023/05/14 12:55:13;;;;;;;3.30;2.65;;;;;;;;;;4932833;28;20067;-79
2023/05/14 12:57:40;;;;;;;3.50;2.47;;;;;;;;;;4963259;28;20050;-81
2023/05/14 13:00:09;;;;;;;4.68;2.60;;;;;;;;;;4981605;28;20043;-83
2023/05/14 13:02:39;;;;;;;3.97;2.58;;;;;;;;;;4940281;28;20051;-80
2023/05/14 13:05:09;;;;;;;3.80;2.55;;;;;;;;;;4929905;28;20039;-82
2023/05/14 13:07:36;;;;;;;3.70;2.42;;;;;;;;;;4951715;28;20138;-81
2023/05/14 13:10:07;;;;;;;4.05;2.80;;;;;;;;;;4948885;28;20071;-81
2023/05/14 13:12:33;;;;;;;4.40;2.42;;;;;;;;;;4993934;28;20050;-83
2023/05/14 13:15:00;;;;;;;5.68;2.50;;;;;;;;;;4955939;28;20051;-83
2023/05/14 13:17:26;;;;;;;5.20;2.55;;;;;;;;;;4949539;28;20051;-79
2023/05/14 13:19:53;;;;;;;3.17;2.50;;;;;;;;;;4957742;28;20209;-82
2023/05/14 13:22:19;;;;;;;3.28;2.17;;;;;;;;;;4958208;28;20039;-84
2023/05/14 13:24:46;;;;;;;3.88;2.45;;;;;;;;;;4949637;28;20125;-83
2023/05/14 13:27:13;;;;;;;4.70;3.00;;;;;;;;;;4940752;28;20138;-81
2023/05/14 13:29:40;;;;;;;3.42;2.63;;;;;;;;;;4949442;28;20058;-82
2023/05/14 13:32:07;;;;;;;5.82;2.83;;;;;;;;;;4947410;28;20141;-83
2023/05/14 13:34:33;;;;;;;5.82;2.65;;;;;;;;;;4979297;28;20139;-81
2023/05/14 13:37:00;;;;;;;8.90;2.90;;;;;;;;;;4958806;28;20055;-79
2023/05/14 13:39:26;;;;;;;7.07;2.40;;;;;;;;;;4971289;28;20068;-80
2023/05/14 13:41:55;;;;;;;14.43;3.40;;;;;;;;;;4946249;28;20046;-83
2023/05/14 13:44:22;;;;;;;13.93;3.38;;;;;;;;;;4917243;28;1198371;-84
2023/05/14 13:46:49;;;;;;;9.90;2.83;;;;;;;;;;4986116;28;20051;-83
2023/05/14 13:49:16;;;;;;;9.15;2.80;;;;;;;;;;4966948;28;20431;-83
2023/05/14 13:51:42;;;;;;;17.55;3.40;;;;;;;;;;4966193;28;20424;-81
2023/05/14 13:54:09;;;;;;;12.05;3.13;;;;;;;;;;4967809;28;20062;-83
2023/05/14 13:56:36;;;;;;;5.70;2.75;;;;;;;;;;4983606;28;20062;-82
2023/05/14 13:59:02;;;;;;;8.32;3.30;;;;;;;;;;4955773;28;20050;-82
2023/05/14 14:01:29;;;;;;;4.38;2.75;;;;;;;;;;4958968;28;20058;-83
2023/05/14 14:03:56;;;;;;;3.78;2.95;;;;;;;;;;4963255;28;20142;-82
2023/05/14 14:06:24;;;;;;;7.43;3.55;;;;;;;;;;4962643;28;20082;-80
2023/05/14 14:08:50;;;;;;;9.30;4.05;;;;;;;;;;4953929;28;20077;-81
2023/05/14 14:11:17;;;;;;;12.25;4.25;;;;;;;;;;4950700;28;20426;-80
2023/05/14 14:13:44;;;;;;;7.88;4.65;;;;;;;;;;4977662;28;20075;-78
2023/05/14 14:16:12;;;;;;;14.77;5.32;;;;;;;;;;4932876;28;20363;-79
2023/05/14 14:18:38;;;;;;;16.05;5.57;;;;;;;;;;4950876;28;20078;-81
2023/05/14 14:21:05;;;;;;;12.00;5.38;;;;;;;;;;4936989;28;20051;-80
2023/05/14 14:23:32;;;;;;;10.68;5.82;;;;;;;;;;4949076;28;20076;-79
2023/05/14 14:25:59;;;;;;;10.23;5.90;;;;;;;;;;4953474;28;20085;-80
2023/05/14 14:28:25;;;;;;;10.07;5.63;;;;;;;;;;4953795;28;20116;-80
2023/05/14 14:30:52;;;;;;;20.13;6.90;;;;;;;;;;4940998;28;20133;-81
2023/05/14 14:33:18;;;;;;;9.73;5.57;;;;;;;;;;4953376;28;20622;-81
2023/05/14 14:35:45;;;;;;;7.60;5.07;;;;;;;;;;4965912;28;20051;-82
2023/05/14 14:38:11;;;;;;;7.57;4.53;;;;;;;;;;4945927;28;20100;-80